Time;durP1;ratioP1;P1;durP2;ratioP2;P2;SDS_P1;SDS_P2;PMS_P1;PMS_P2;Temp;Humidity;BMP_temperature;BMP_pressure;BME280_temperature;BME280_humidity;BME280_pressure;Samples;Min_cycle;Max_cycle;Signal;HPM_P1;HPM_P2
2021/06/06 00:01:40;;;;;;;6.75;3.17;;;21.80;96.70;;;;;;5096100;28;20036;-76
2021/06/06 00:04:12;;;;;;;7.38;2.78;;;21.60;96.70;;;;;;5093782;28;20040;-76
2021/06/06 00:06:42;;;;;;;6.50;2.80;;;21.60;96.70;;;;;;5097490;28;20089;-76
2021/06/06 00:09:15;;;;;;;10.82;3.65;;;21.60;96.70;;;;;;5085753;28;20531;-76
2021/06/06 00:11:47;;;;;;;7.65;2.45;;;21.60;96.70;;;;;;5092953;28;20449;-76
2021/06/06 00:14:19;;;;;;;5.35;2.83;;;21.70;96.70;;;;;;5095083;28;20085;-76
2021/06/06 00:16:53;;;;;;;8.75;3.60;;;21.60;96.70;;;;;;5096396;27;20550;-76
2021/06/06 00:19:24;;;;;;;5.63;3.10;;;21.60;96.70;;;;;;5098472;28;20048;-76
2021/06/06 00:21:57;;;;;;;6.95;3.25;;;21.50;96.70;;;;;;5094405;28;20038;-76
2021/06/06 00:24:31;;;;;;;6.20;2.80;;;21.40;96.70;;;;;;5101760;28;20085;-76
2021/06/06 00:27:01;;;;;;;10.07;3.47;;;21.40;96.70;;;;;;5098504;27;20432;-76
2021/06/06 00:29:31;;;;;;;8.07;3.33;;;21.40;96.70;;;;;;5090752;28;20051;-76
2021/06/06 00:32:01;;;;;;;5.20;2.47;;;21.40;96.70;;;;;;5098264;27;20032;-76
2021/06/06 00:34:31;;;;;;;7.43;3.20;;;21.30;96.70;;;;;;5102740;28;20468;-76
2021/06/06 00:37:00;;;;;;;7.60;3.03;;;21.30;96.70;;;;;;5089865;28;20052;-76
2021/06/06 00:39:36;;;;;;;6.60;2.85;;;21.30;96.70;;;;;;5101661;27;20142;-76
2021/06/06 00:42:07;;;;;;;6.32;3.55;;;21.30;96.70;;;;;;5101309;28;20055;-76
2021/06/06 00:44:36;;;;;;;6.18;2.80;;;21.20;96.70;;;;;;5103100;27;20118;-76
2021/06/06 00:47:09;;;;;;;9.27;3.15;;;21.20;96.70;;;;;;5087703;27;20131;-75
2021/06/06 00:49:38;;;;;;;9.27;3.47;;;21.10;96.70;;;;;;5106536;27;20046;-76
2021/06/06 00:52:08;;;;;;;6.88;3.08;;;20.90;96.70;;;;;;5100479;28;20050;-75
2021/06/06 00:54:41;;;;;;;7.53;3.28;;;20.90;96.70;;;;;;5100357;27;20132;-76
2021/06/06 00:57:15;;;;;;;8.55;3.70;;;20.80;96.70;;;;;;5102058;27;20032;-76
2021/06/06 01:00:01;;;;;;;8.90;3.47;;;20.80;96.70;;;;;;5103864;27;20075;-76
2021/06/06 01:02:34;;;;;;;6.60;2.97;;;20.80;96.70;;;;;;5115415;27;20379;-76
2021/06/06 01:05:10;;;;;;;8.80;3.05;;;20.80;96.70;;;;;;5123582;27;20093;-76
2021/06/06 01:07:38;;;;;;;5.25;2.88;;;20.80;96.70;;;;;;5101672;27;20061;-76
2021/06/06 01:10:10;;;;;;;6.40;3.05;;;20.90;96.70;;;;;;5102227;27;20039;-76
2021/06/06 01:12:46;;;;;;;8.45;3.10;;;20.90;96.70;;;;;;5100945;27;20055;-76
2021/06/06 01:15:20;;;;;;;6.10;2.80;;;20.80;96.70;;;;;;5096965;28;20142;-76
2021/06/06 01:17:58;;;;;;;7.47;2.60;;;20.80;96.70;;;;;;5104718;27;20138;-76
2021/06/06 01:20:47;;;;;;;7.45;2.33;;;20.80;96.70;;;;;;5116717;27;20039;-76
2021/06/06 01:24:12;;;;;;;6.28;3.13;;;20.80;96.70;;;;;;5098827;28;20039;-76
2021/06/06 01:27:03;;;;;;;5.78;2.42;;;20.80;96.70;;;;;;5099519;28;20036;-74
2021/06/06 01:29:54;;;;;;;8.10;2.63;;;20.80;96.70;;;;;;5100671;27;20455;-76
2021/06/06 01:32:29;;;;;;;4.60;2.58;;;20.80;96.70;;;;;;5105222;27;20552;-76
2021/06/06 01:35:06;;;;;;;6.03;2.67;;;20.80;96.70;;;;;;5096474;28;20035;-76
2021/06/06 01:37:44;;;;;;;5.88;2.30;;;20.80;96.70;;;;;;5103861;27;20138;-77
2021/06/06 01:40:22;;;;;;;4.93;2.13;;;20.80;96.70;;;;;;5085286;27;20134;-77
2021/06/06 01:42:59;;;;;;;3.97;2.10;;;20.80;96.70;;;;;;5100216;27;20036;-76
2021/06/06 01:45:32;;;;;;;8.13;2.35;;;20.80;96.70;;;;;;5103999;27;20043;-76
2021/06/06 01:48:07;;;;;;;7.32;2.42;;;20.80;96.70;;;;;;5084825;28;20671;-76
2021/06/06 01:50:42;;;;;;;5.47;2.60;;;20.80;96.70;;;;;;5103483;27;20057;-76
2021/06/06 01:53:15;;;;;;;5.20;2.25;;;20.70;96.70;;;;;;5099623;27;20063;-76
2021/06/06 01:55:50;;;;;;;4.00;2.25;;;20.70;96.70;;;;;;5102000;27;20462;-76
2021/06/06 01:58:22;;;;;;;5.40;2.10;;;20.70;96.70;;;;;;5099524;27;20085;-76
2021/06/06 02:01:01;;;;;;;6.88;2.40;;;20.70;96.70;;;;;;5102771;27;20040;-75
2021/06/06 02:03:35;;;;;;;5.90;2.47;;;20.70;96.70;;;;;;5096923;27;20127;-76
2021/06/06 02:06:15;;;;;;;5.57;2.85;;;20.70;96.70;;;;;;5091566;27;20558;-76
2021/06/06 02:08:46;;;;;;;5.72;2.05;;;20.60;96.70;;;;;;5099596;27;20056;-75
2021/06/06 02:11:30;;;;;;;6.03;2.80;;;20.60;96.70;;;;;;5113551;27;20048;-76
2021/06/06 02:14:05;;;;;;;7.00;2.83;;;20.60;96.70;;;;;;5098810;27;20040;-76
2021/06/06 02:16:41;;;;;;;4.57;2.03;;;20.50;96.70;;;;;;5098652;27;20044;-76
2021/06/06 02:19:18;;;;;;;6.43;2.60;;;20.50;96.70;;;;;;5101820;27;20039;-74
2021/06/06 02:22:08;;;;;;;6.03;2.53;;;20.50;96.70;;;;;;5096774;28;20051;-75
2021/06/06 02:24:44;;;;;;;5.80;2.13;;;20.50;96.70;;;;;;5098938;27;20084;-75
2021/06/06 02:27:25;;;;;;;5.18;2.40;;;20.50;96.70;;;;;;5099356;28;20039;-75
2021/06/06 02:30:06;;;;;;;7.15;2.10;;;20.50;96.70;;;;;;5100074;27;20489;-75
2021/06/06 02:32:50;;;;;;;5.17;2.57;;;20.40;96.70;;;;;;5084212;28;20051;-75
2021/06/06 02:35:25;;;;;;;7.10;2.20;;;20.50;96.70;;;;;;5094234;28;20101;-75
2021/06/06 02:37:58;;;;;;;4.05;1.92;;;20.50;96.70;;;;;;5101159;27;20382;-75
2021/06/06 02:40:33;;;;;;;4.80;2.47;;;20.40;96.70;;;;;;5105627;27;20088;-75
2021/06/06 02:43:10;;;;;;;5.55;2.97;;;20.30;96.70;;;;;;5096486;27;20118;-75
2021/06/06 02:45:41;;;;;;;6.05;2.40;;;20.40;96.70;;;;;;5098150;28;20051;-76
2021/06/06 02:48:16;;;;;;;8.60;2.40;;;20.40;96.70;;;;;;5098413;27;20045;-76
2021/06/06 02:50:47;;;;;;;4.13;2.08;;;20.40;96.70;;;;;;5097098;27;20043;-76
2021/06/06 02:53:21;;;;;;;4.60;2.40;;;20.50;96.70;;;;;;5101124;27;20067;-76
2021/06/06 02:55:54;;;;;;;7.47;2.92;;;20.50;96.70;;;;;;5096337;27;20118;-76
2021/06/06 02:58:33;;;;;;;4.47;2.08;;;20.60;96.70;;;;;;5098918;28;20195;-75
2021/06/06 03:01:11;;;;;;;4.53;2.47;;;20.50;96.70;;;;;;5098859;27;20040;-76
2021/06/06 03:03:43;;;;;;;7.05;2.35;;;20.40;96.70;;;;;;5098742;27;20042;-76
2021/06/06 03:06:33;;;;;;;4.20;2.08;;;20.30;96.70;;;;;;5100983;27;20489;-76
2021/06/06 03:09:05;;;;;;;6.38;2.10;;;20.30;96.70;;;;;;5096393;27;20384;-76
2021/06/06 03:11:40;;;;;;;6.25;2.35;;;20.40;96.70;;;;;;5102243;27;20058;-76
2021/06/06 03:14:17;;;;;;;5.78;2.00;;;20.50;96.70;;;;;;5096165;27;20044;-76
2021/06/06 03:16:54;;;;;;;4.60;2.63;;;20.40;96.70;;;;;;5098789;27;20511;-76
2021/06/06 03:19:30;;;;;;;3.10;1.90;;;20.40;96.70;;;;;;5096826;27;20032;-76
2021/06/06 03:22:03;;;;;;;4.30;1.90;;;20.30;96.70;;;;;;5098108;27;20147;-76
2021/06/06 03:24:41;;;;;;;4.13;2.20;;;20.30;96.70;;;;;;5096721;27;20138;-76
2021/06/06 03:27:16;;;;;;;2.92;1.92;;;20.30;96.70;;;;;;5099557;27;20039;-75
2021/06/06 03:29:55;;;;;;;5.75;2.60;;;20.20;96.70;;;;;;5100858;27;20035;-76
2021/06/06 03:32:31;;;;;;;4.97;2.10;;;20.20;96.70;;;;;;5096538;28;20329;-76
2021/06/06 03:35:06;;;;;;;4.38;2.03;;;20.10;96.70;;;;;;5100275;28;20265;-76
2021/06/06 03:37:36;;;;;;;4.65;2.47;;;20.10;96.70;;;;;;5098222;27;20055;-76
2021/06/06 03:40:27;;;;;;;5.25;2.58;;;20.10;96.70;;;;;;5093719;28;20553;-76
2021/06/06 03:43:07;;;;;;;8.95;3.22;;;19.90;96.70;;;;;;5097814;27;20428;-76
2021/06/06 03:45:38;;;;;;;6.32;2.75;;;20.00;96.70;;;;;;5097198;28;20990;-76
2021/06/06 03:48:09;;;;;;;6.75;2.70;;;20.10;96.70;;;;;;5096792;28;20664;-76
2021/06/06 03:50:41;;;;;;;7.07;3.20;;;20.10;96.70;;;;;;5095767;28;20066;-75
2021/06/06 03:53:31;;;;;;;4.30;2.75;;;20.10;96.70;;;;;;5031674;28;20509;-76
2021/06/06 03:56:01;;;;;;;6.68;2.80;;;20.20;96.70;;;;;;5036525;28;20049;-76
2021/06/06 03:58:31;;;;;;;4.50;2.67;;;20.20;96.70;;;;;;5019818;28;20490;-76
2021/06/06 04:01:04;;;;;;;6.18;3.22;;;20.20;96.70;;;;;;5035180;28;20104;-76
2021/06/06 04:03:34;;;;;;;7.95;3.40;;;20.20;96.70;;;;;;5018859;28;20079;-76
2021/06/06 04:06:05;;;;;;;7.13;3.05;;;20.10;96.70;;;;;;5033641;28;20056;-76
2021/06/06 04:08:41;;;;;;;5.85;3.15;;;20.10;96.70;;;;;;5032832;28;20075;-75
2021/06/06 04:11:16;;;;;;;6.20;3.22;;;20.10;96.70;;;;;;5036493;28;20045;-76
2021/06/06 04:14:17;;;;;;;5.82;3.13;;;20.10;96.70;;;;;;5035978;28;20064;-76
2021/06/06 04:16:55;;;;;;;7.45;3.10;;;20.10;96.70;;;;;;5027449;28;20135;-76
2021/06/06 04:19:28;;;;;;;5.88;2.75;;;20.10;96.70;;;;;;5095548;28;20094;-76
2021/06/06 04:21:58;;;;;;;6.38;3.17;;;20.20;96.70;;;;;;5102947;28;20428;-76
2021/06/06 04:24:28;;;;;;;6.57;2.97;;;20.20;96.70;;;;;;5096408;28;20059;-76
2021/06/06 04:27:00;;;;;;;3.95;2.35;;;20.20;96.70;;;;;;5096569;28;20044;-76
2021/06/06 04:29:30;;;;;;;7.50;2.72;;;20.30;96.70;;;;;;5097274;28;20666;-76
2021/06/06 04:32:13;;;;;;;6.30;2.70;;;20.40;96.70;;;;;;5080361;28;20504;-75
2021/06/06 04:34:48;;;;;;;5.28;2.70;;;20.50;96.70;;;;;;5079754;28;20104;-76
2021/06/06 04:37:21;;;;;;;5.72;2.55;;;20.50;96.70;;;;;;5099170;28;20031;-76
2021/06/06 04:39:52;;;;;;;7.47;2.70;;;20.40;96.70;;;;;;5099300;28;20509;-76
2021/06/06 04:42:24;;;;;;;6.15;2.53;;;20.50;96.70;;;;;;5097360;28;20031;-76
2021/06/06 04:44:58;;;;;;;2.75;2.00;;;20.50;96.70;;;;;;5101514;28;20169;-76
2021/06/06 04:47:30;;;;;;;4.60;2.25;;;20.50;96.70;;;;;;5097685;28;20059;-75
2021/06/06 04:50:01;;;;;;;6.95;2.40;;;20.60;96.70;;;;;;5095807;28;20046;-76
2021/06/06 04:52:36;;;;;;;6.10;2.80;;;20.60;96.70;;;;;;5081735;28;20535;-76
2021/06/06 04:55:12;;;;;;;4.07;2.30;;;20.60;96.70;;;;;;5081589;28;20043;-76
2021/06/06 04:57:41;;;;;;;5.57;2.50;;;20.60;96.70;;;;;;5101821;28;20043;-76
2021/06/06 05:00:15;;;;;;;6.15;2.60;;;20.60;96.70;;;;;;5096042;28;20544;-76
2021/06/06 05:02:48;;;;;;;5.03;2.70;;;20.50;96.70;;;;;;5099017;28;20067;-76
2021/06/06 05:05:22;;;;;;;13.93;7.57;;;20.60;96.70;;;;;;5114024;27;20416;-76
2021/06/06 05:07:52;;;;;;;19.05;10.50;;;20.60;96.70;;;;;;5102630;28;20134;-75
2021/06/06 05:10:23;;;;;;;16.55;8.98;;;20.70;96.70;;;;;;5099286;27;20150;-76
2021/06/06 05:12:53;;;;;;;15.48;7.53;;;20.70;96.70;;;;;;5102331;27;20051;-76
2021/06/06 05:15:23;;;;;;;13.10;7.68;;;20.80;96.70;;;;;;5094536;27;20039;-76
2021/06/06 05:17:56;;;;;;;13.82;8.18;;;20.70;96.70;;;;;;5101927;28;20309;-76
2021/06/06 05:20:28;;;;;;;27.30;20.17;;;20.60;96.70;;;;;;5118519;27;20053;-75
2021/06/06 05:22:57;;;;;;;41.47;28.15;;;20.80;96.70;;;;;;5120635;27;20492;-76
2021/06/06 05:25:27;;;;;;;35.92;25.95;;;20.90;96.70;;;;;;5101475;27;20044;-76
2021/06/06 05:27:55;;;;;;;26.77;17.98;;;20.90;96.70;;;;;;5098295;27;20040;-76
2021/06/06 05:30:28;;;;;;;15.90;10.98;;;20.90;96.70;;;;;;5100550;27;20047;-76
2021/06/06 05:32:57;;;;;;;10.73;6.28;;;20.90;96.70;;;;;;5102215;27;20040;-76
2021/06/06 05:35:29;;;;;;;7.25;4.18;;;20.90;96.70;;;;;;5115979;27;20397;-76
2021/06/06 05:37:57;;;;;;;11.15;4.82;;;20.90;96.70;;;;;;5096675;27;20040;-76
2021/06/06 05:40:28;;;;;;;7.05;3.63;;;20.80;96.70;;;;;;5097434;28;20091;-76
2021/06/06 05:42:57;;;;;;;8.60;3.47;;;20.90;96.70;;;;;;5098043;28;20047;-75
2021/06/06 05:45:25;;;;;;;10.27;4.20;;;21.00;96.70;;;;;;5099275;27;20035;-75
2021/06/06 05:47:53;;;;;;;11.05;4.07;;;21.00;96.70;;;;;;5123812;27;20435;-75
2021/06/06 05:50:30;;;;;;;7.35;3.55;;;21.10;96.70;;;;;;5103039;27;20047;-75
2021/06/06 05:53:29;;;;;;;5.03;3.03;;;21.20;96.70;;;;;;5101144;27;20454;-75
2021/06/06 05:55:57;;;;;;;8.18;3.80;;;21.10;96.70;;;;;;5081109;28;20503;-75
2021/06/06 05:58:25;;;;;;;8.02;3.33;;;21.10;96.70;;;;;;5099117;27;20044;-75
2021/06/06 06:00:53;;;;;;;5.75;3.13;;;21.00;96.70;;;;;;5097032;28;20047;-75
2021/06/06 06:03:21;;;;;;;7.40;3.65;;;21.10;96.70;;;;;;5096817;28;20040;-75
2021/06/06 06:05:53;;;;;;;4.30;3.30;;;21.20;96.70;;;;;;5099642;27;20035;-75
2021/06/06 06:08:24;;;;;;;9.98;3.75;;;21.30;96.70;;;;;;5100245;27;20042;-75
2021/06/06 06:10:54;;;;;;;5.38;3.33;;;21.40;96.70;;;;;;5101483;27;20046;-75
2021/06/06 06:13:24;;;;;;;5.85;3.65;;;21.40;96.70;;;;;;5095263;27;20067;-76
2021/06/06 06:15:53;;;;;;;7.60;3.75;;;21.30;96.70;;;;;;5102970;27;20126;-76
2021/06/06 06:18:25;;;;;;;6.47;3.38;;;21.20;96.70;;;;;;5101334;27;20478;-76
2021/06/06 06:20:56;;;;;;;6.95;3.60;;;21.30;96.70;;;;;;5097585;27;20052;-76
2021/06/06 06:23:25;;;;;;;7.00;3.30;;;21.40;96.70;;;;;;5095575;27;20044;-75
2021/06/06 06:25:54;;;;;;;10.70;3.70;;;21.50;96.70;;;;;;5098435;27;20440;-76
2021/06/06 06:28:23;;;;;;;5.95;3.05;;;21.60;96.70;;;;;;5082456;28;20100;-76
2021/06/06 06:31:20;;;;;;;6.03;3.28;;;21.60;96.70;;;;;;5089301;28;20048;-76
2021/06/06 06:33:56;;;;;;;6.55;4.15;;;21.80;96.70;;;;;;5100191;27;20043;-76
2021/06/06 06:36:26;;;;;;;7.97;3.70;;;21.90;96.70;;;;;;5096837;28;20524;-76
2021/06/06 06:38:54;;;;;;;5.78;3.47;;;22.00;96.70;;;;;;5098507;27;20047;-76
2021/06/06 06:41:25;;;;;;;6.93;3.53;;;22.10;96.70;;;;;;5090089;28;20044;-76
2021/06/06 06:43:54;;;;;;;6.72;3.65;;;22.10;96.70;;;;;;5100288;27;20042;-77
2021/06/06 06:46:22;;;;;;;8.63;3.47;;;22.10;96.70;;;;;;5115409;27;20043;-76
2021/06/06 06:48:52;;;;;;;8.52;3.40;;;22.20;96.70;;;;;;5115690;27;20060;-76
2021/06/06 06:51:20;;;;;;;5.82;2.83;;;22.20;96.70;;;;;;5084393;28;20035;-76
2021/06/06 06:53:54;;;;;;;10.20;4.57;;;22.20;96.70;;;;;;5100890;27;20040;-76
2021/06/06 06:56:23;;;;;;;5.28;3.30;;;22.30;96.70;;;;;;5082079;28;20134;-76
2021/06/06 06:58:52;;;;;;;8.55;3.13;;;22.30;96.70;;;;;;5105187;27;20501;-76
2021/06/06 07:01:21;;;;;;;8.38;3.80;;;22.40;96.70;;;;;;5098218;27;20507;-76
2021/06/06 07:03:49;;;;;;;7.55;3.15;;;22.50;96.70;;;;;;5101146;27;20036;-76
2021/06/06 07:06:18;;;;;;;5.47;2.92;;;22.60;96.70;;;;;;5101899;27;20040;-76
2021/06/06 07:08:46;;;;;;;9.35;3.15;;;22.70;96.70;;;;;;5098314;27;20298;-76
2021/06/06 07:11:19;;;;;;;7.10;3.15;;;22.70;96.70;;;;;;5109663;27;20050;-76
2021/06/06 07:13:48;;;;;;;4.30;2.65;;;22.80;96.70;;;;;;5100456;27;20126;-76
2021/06/06 07:16:18;;;;;;;7.25;3.00;;;22.90;96.70;;;;;;5099232;27;20040;-76
2021/06/06 07:18:46;;;;;;;5.05;3.00;;;22.90;96.70;;;;;;5101993;27;20035;-75
2021/06/06 07:21:18;;;;;;;5.35;2.78;;;22.90;96.70;;;;;;5096032;27;20044;-76
2021/06/06 07:23:46;;;;;;;7.40;3.03;;;22.90;96.70;;;;;;5097035;28;20044;-76
2021/06/06 07:26:19;;;;;;;7.07;2.97;;;22.90;96.70;;;;;;5082479;27;20087;-76
2021/06/06 07:28:48;;;;;;;5.53;2.60;;;23.00;96.70;;;;;;5100742;27;20455;-76
2021/06/06 07:31:16;;;;;;;3.92;2.33;;;23.20;96.70;;;;;;5098175;28;20046;-75
2021/06/06 07:33:46;;;;;;;6.53;2.65;;;23.20;96.70;;;;;;5097687;27;20409;-75
2021/06/06 07:36:17;;;;;;;5.28;2.63;;;23.20;96.70;;;;;;5091883;28;20215;-75
2021/06/06 07:38:46;;;;;;;6.63;2.47;;;23.10;96.70;;;;;;5095548;27;20036;-76
2021/06/06 07:41:17;;;;;;;6.57;2.78;;;23.20;96.70;;;;;;5099594;28;20436;-75
2021/06/06 07:43:45;;;;;;;4.10;2.22;;;23.20;96.70;;;;;;5097711;28;20050;-75
2021/06/06 07:46:15;;;;;;;6.18;2.78;;;23.30;96.70;;;;;;5097647;27;20036;-75
2021/06/06 07:48:44;;;;;;;6.50;2.55;;;23.30;96.70;;;;;;5094242;28;20163;-75
2021/06/06 07:51:12;;;;;;;6.90;2.42;;;23.40;96.70;;;;;;5099173;28;20122;-75
2021/06/06 07:53:40;;;;;;;7.22;2.58;;;23.40;96.70;;;;;;5097133;27;20044;-76
2021/06/06 07:56:09;;;;;;;6.70;2.30;;;23.50;96.70;;;;;;5100535;28;20516;-76
2021/06/06 07:58:38;;;;;;;6.30;2.30;;;23.50;96.70;;;;;;5096910;28;20440;-76
2021/06/06 08:01:08;;;;;;;7.75;2.90;;;23.50;96.70;;;;;;5101105;27;20108;-76
2021/06/06 08:03:37;;;;;;;5.22;2.08;;;23.50;96.70;;;;;;5096096;28;20075;-76
2021/06/06 08:06:10;;;;;;;5.40;2.13;;;23.60;96.70;;;;;;5097909;27;20063;-76
2021/06/06 08:08:38;;;;;;;5.80;2.15;;;23.60;96.70;;;;;;5081384;28;20067;-75
2021/06/06 08:11:08;;;;;;;6.70;2.67;;;23.70;96.70;;;;;;5094456;28;20061;-75
2021/06/06 08:13:39;;;;;;;5.00;1.98;;;23.80;96.70;;;;;;5100064;28;20070;-75
2021/06/06 08:16:08;;;;;;;4.07;1.80;;;23.80;96.70;;;;;;5097361;28;20059;-75
2021/06/06 08:18:40;;;;;;;4.00;1.50;;;23.80;94.80;;;;;;5091694;28;20150;-75
2021/06/06 08:21:10;;;;;;;4.05;1.40;;;23.90;92.50;;;;;;5100600;27;20084;-75
2021/06/06 08:23:40;;;;;;;4.00;1.73;;;23.90;91.80;;;;;;5097261;28;20039;-75
2021/06/06 08:26:09;;;;;;;6.82;1.85;;;24.00;92.00;;;;;;5098502;28;20044;-75
2021/06/06 08:28:39;;;;;;;5.97;1.50;;;24.10;90.50;;;;;;5095787;28;20267;-75
2021/06/06 08:31:10;;;;;;;5.65;1.48;;;24.20;90.40;;;;;;5100159;28;20560;-75
2021/06/06 08:33:39;;;;;;;5.18;1.70;;;24.20;93.00;;;;;;5095518;28;20130;-76
2021/06/06 08:36:11;;;;;;;5.40;1.70;;;24.20;94.10;;;;;;5092050;28;20043;-76
2021/06/06 08:38:39;;;;;;;3.40;1.60;;;24.30;94.00;;;;;;5094947;28;20044;-75
2021/06/06 08:41:12;;;;;;;5.38;1.58;;;24.30;92.20;;;;;;5098922;28;20101;-75
2021/06/06 08:43:51;;;;;;;3.85;1.65;;;24.30;90.90;;;;;;5084746;27;20511;-76
2021/06/06 08:46:21;;;;;;;3.72;1.80;;;24.40;89.60;;;;;;5101124;27;20431;-75
2021/06/06 08:48:51;;;;;;;4.13;1.80;;;24.60;90.30;;;;;;5099270;28;20101;-76
2021/06/06 08:51:25;;;;;;;10.35;1.73;;;24.70;90.10;;;;;;5102578;27;20055;-77
2021/06/06 08:54:02;;;;;;;2.28;1.40;;;24.80;89.60;;;;;;5101381;27;20122;-77
2021/06/06 08:56:33;;;;;;;5.07;2.10;;;24.80;89.80;;;;;;5103138;27;20036;-78
2021/06/06 08:59:08;;;;;;;3.75;1.92;;;24.90;90.10;;;;;;5097253;28;20513;-77
2021/06/06 09:01:42;;;;;;;4.47;1.90;;;25.00;91.40;;;;;;5100218;27;20040;-78
2021/06/06 09:04:15;;;;;;;5.75;2.33;;;25.00;91.40;;;;;;5102610;27;20035;-79
2021/06/06 09:06:49;;;;;;;4.15;1.65;;;25.00;92.40;;;;;;5098242;27;20044;-79
2021/06/06 09:09:23;;;;;;;5.45;2.22;;;25.00;93.40;;;;;;5104628;28;20065;-79
2021/06/06 09:11:51;;;;;;;6.63;1.90;;;25.20;93.60;;;;;;5102962;28;20431;-78
2021/06/06 09:14:21;;;;;;;6.03;2.20;;;25.20;92.80;;;;;;5099443;27;20048;-80
2021/06/06 09:16:59;;;;;;;3.60;1.70;;;25.30;92.60;;;;;;5101373;27;20044;-79
2021/06/06 09:19:38;;;;;;;6.43;1.70;;;25.40;90.00;;;;;;5100423;27;20071;-78
2021/06/06 09:22:06;;;;;;;2.97;1.48;;;25.50;88.90;;;;;;5095772;27;20497;-79
2021/06/06 09:24:42;;;;;;;3.10;1.67;;;25.60;87.70;;;;;;5101789;27;20039;-78
2021/06/06 09:27:26;;;;;;;4.32;1.75;;;25.60;87.20;;;;;;5091038;28;20050;-80
2021/06/06 09:30:07;;;;;;;5.57;1.73;;;25.50;86.60;;;;;;5100007;28;20508;-78
2021/06/06 09:32:36;;;;;;;5.28;1.60;;;25.40;86.50;;;;;;5097515;27;20098;-78
2021/06/06 09:35:19;;;;;;;3.80;1.63;;;25.40;86.30;;;;;;5097673;27;20955;-79
2021/06/06 09:37:52;;;;;;;5.65;1.70;;;25.50;86.50;;;;;;5101295;27;20518;-79
2021/06/06 09:40:30;;;;;;;6.57;1.67;;;25.60;86.70;;;;;;5087523;28;20072;-80
2021/06/06 09:42:59;;;;;;;5.28;1.63;;;25.70;86.70;;;;;;5101914;27;20043;-79
2021/06/06 09:45:32;;;;;;;4.53;1.88;;;25.70;86.50;;;;;;5115720;27;20421;-78
2021/06/06 09:48:04;;;;;;;3.13;1.50;;;25.80;86.50;;;;;;5100273;28;20493;-78
2021/06/06 09:50:39;;;;;;;7.22;1.80;;;25.90;85.40;;;;;;5098791;27;20428;-80
2021/06/06 09:53:19;;;;;;;4.75;1.52;;;26.00;83.10;;;;;;5096356;27;20048;-78
2021/06/06 09:55:48;;;;;;;2.63;1.35;;;26.10;83.50;;;;;;5099745;27;20067;-79
2021/06/06 09:58:26;;;;;;;4.60;1.10;;;26.20;80.50;;;;;;5097852;27;20111;-78
2021/06/06 10:01:09;;;;;;;5.10;1.42;;;26.40;78.30;;;;;;5100420;27;20044;-80
2021/06/06 10:03:41;;;;;;;3.15;1.33;;;26.60;78.50;;;;;;5101018;27;20035;-79
2021/06/06 10:06:32;;;;;;;3.47;1.55;;;26.60;78.90;;;;;;5086836;28;20118;-79
2021/06/06 10:09:06;;;;;;;2.17;1.10;;;26.70;78.90;;;;;;5099892;28;20122;-78
2021/06/06 10:11:49;;;;;;;3.50;1.20;;;26.50;77.10;;;;;;5079487;28;20516;-79
2021/06/06 10:14:23;;;;;;;3.22;1.50;;;26.60;77.30;;;;;;5096262;28;20105;-75
2021/06/06 10:16:55;;;;;;;3.45;1.40;;;26.70;78.50;;;;;;5124074;27;20039;-75
2021/06/06 10:19:26;;;;;;;5.18;1.75;;;26.70;79.30;;;;;;5105081;27;20040;-76
2021/06/06 10:21:59;;;;;;;3.35;1.42;;;26.90;80.30;;;;;;5083611;28;20051;-76
2021/06/06 10:24:32;;;;;;;4.55;1.55;;;26.70;78.20;;;;;;5100483;27;20504;-76
2021/06/06 10:27:07;;;;;;;6.95;5.20;;;26.80;78.50;;;;;;5099629;27;20046;-75
2021/06/06 10:29:39;;;;;;;5.22;1.83;;;26.90;79.40;;;;;;5104910;27;20043;-76
2021/06/06 10:32:16;;;;;;;4.13;1.50;;;26.90;77.80;;;;;;5086588;28;20055;-77
2021/06/06 10:34:51;;;;;;;6.25;2.00;;;26.90;78.90;;;;;;5102682;27;20043;-75
2021/06/06 10:37:20;;;;;;;4.22;1.75;;;27.10;78.00;;;;;;5099604;27;20039;-75
2021/06/06 10:39:56;;;;;;;3.15;1.05;;;27.10;77.60;;;;;;5098846;27;20042;-76
2021/06/06 10:42:30;;;;;;;4.85;1.40;;;27.40;78.60;;;;;;5114296;27;20252;-77
2021/06/06 10:45:05;;;;;;;5.72;1.52;;;27.50;79.40;;;;;;5117011;27;20402;-76
2021/06/06 10:47:44;;;;;;;3.25;1.40;;;27.30;78.30;;;;;;5094665;28;20052;-75
2021/06/06 10:50:24;;;;;;;5.25;1.63;;;27.50;78.00;;;;;;5091920;28;20055;-75
2021/06/06 10:53:04;;;;;;;2.83;1.10;;;27.80;76.80;;;;;;5112412;27;20364;-75
2021/06/06 10:55:35;;;;;;;3.28;1.45;;;27.70;76.30;;;;;;5096422;27;20044;-75
2021/06/06 10:58:11;;;;;;;3.20;1.08;;;27.80;75.90;;;;;;5095987;28;20053;-75
2021/06/06 11:00:53;;;;;;;2.53;0.90;;;27.80;76.80;;;;;;5097976;28;20071;-76
2021/06/06 11:03:25;;;;;;;3.92;1.10;;;27.90;76.80;;;;;;5100109;27;20154;-76
2021/06/06 11:05:57;;;;;;;4.78;1.33;;;27.90;76.30;;;;;;5105249;27;20066;-79
2021/06/06 11:08:41;;;;;;;4.90;1.40;;;27.90;77.00;;;;;;5098148;28;20036;-77
2021/06/06 11:11:17;;;;;;;3.03;1.00;;;28.00;77.40;;;;;;5095838;27;20039;-77
2021/06/06 11:13:47;;;;;;;5.10;1.67;;;27.90;77.40;;;;;;5098227;28;20070;-77
2021/06/06 11:16:36;;;;;;;3.80;1.58;;;28.10;77.50;;;;;;5097403;27;20074;-78
2021/06/06 11:19:12;;;;;;;4.40;1.67;;;28.10;77.90;;;;;;5097052;27;20048;-77
2021/06/06 11:21:48;;;;;;;3.05;1.52;;;28.20;78.00;;;;;;5081496;27;20456;-77
2021/06/06 11:24:26;;;;;;;4.10;1.43;;;28.40;77.00;;;;;;5103349;27;20044;-79
2021/06/06 11:27:24;;;;;;;3.40;1.60;;;28.30;78.00;;;;;;5100544;27;20375;-76
2021/06/06 11:29:56;;;;;;;5.10;1.55;;;28.30;77.90;;;;;;5096164;28;20067;-74
2021/06/06 11:32:28;;;;;;;5.93;1.77;;;28.40;78.90;;;;;;5083185;28;20744;-75
2021/06/06 11:35:25;;;;;;;5.50;1.38;;;28.60;79.00;;;;;;5101849;27;20650;-75
2021/06/06 11:37:57;;;;;;;4.05;1.80;;;28.50;77.60;;;;;;5090172;27;20532;-74
2021/06/06 11:40:36;;;;;;;3.70;1.80;;;28.40;77.90;;;;;;5115349;27;20096;-75
2021/06/06 11:43:20;;;;;;;4.72;1.63;;;28.50;77.90;;;;;;5113092;27;20081;-75
2021/06/06 11:45:52;;;;;;;;;;;28.60;78.30;;;;;;5100190;28;20043;-75
2021/06/06 11:48:31;;;;;;;4.72;1.65;;;28.80;79.60;;;;;;5101981;27;19924;-75
2021/06/06 11:51:06;;;;;;;3.95;1.85;;;29.00;78.70;;;;;;5097654;28;20089;-75
2021/06/06 11:53:37;;;;;;;4.55;1.67;;;29.30;78.40;;;;;;5117673;27;20105;-76
2021/06/06 11:56:25;;;;;;;4.00;1.52;;;29.40;78.80;;;;;;5099713;27;20043;-76
2021/06/06 11:59:01;;;;;;;3.75;1.48;;;29.70;78.60;;;;;;5083146;28;20055;-74
2021/06/06 12:01:31;;;;;;;2.67;1.87;;;29.90;78.80;;;;;;5102293;27;20132;-75
2021/06/06 12:04:07;;;;;;;3.90;1.33;;;30.00;78.00;;;;;;5096556;28;20113;-76
2021/06/06 12:06:39;;;;;;;3.95;1.65;;;29.80;77.50;;;;;;5100381;27;20043;-77
2021/06/06 12:09:17;;;;;;;3.47;1.65;;;29.20;78.90;;;;;;5082831;28;20039;-76
2021/06/06 12:11:46;;;;;;;5.40;2.20;;;29.20;79.00;;;;;;5095626;28;20043;-76
2021/06/06 12:14:18;;;;;;;5.18;1.58;;;29.30;78.90;;;;;;5098272;28;20084;-76
2021/06/06 12:16:51;;;;;;;3.72;1.60;;;29.30;78.40;;;;;;5099749;28;20100;-76
2021/06/06 12:19:23;;;;;;;5.65;2.08;;;29.30;78.90;;;;;;5097250;28;20048;-76
2021/06/06 12:22:09;;;;;;;2.85;1.42;;;29.40;78.90;;;;;;5097705;28;20043;-77
2021/06/06 12:25:19;;;;;;;5.20;1.35;;;29.70;78.60;;;;;;5093531;28;20051;-77
2021/06/06 12:27:51;;;;;;;5.18;1.63;;;30.00;78.00;;;;;;5111360;27;20040;-77
2021/06/06 12:30:23;;;;;;;5.10;1.65;;;29.60;78.00;;;;;;5097187;28;20044;-76
2021/06/06 12:32:55;;;;;;;3.13;1.50;;;29.50;78.30;;;;;;5081819;28;20040;-77
2021/06/06 12:35:27;;;;;;;4.32;1.55;;;29.60;77.90;;;;;;5117332;27;20051;-77
2021/06/06 12:38:00;;;;;;;3.97;1.80;;;29.60;78.90;;;;;;5118299;27;20039;-77
2021/06/06 12:40:34;;;;;;;3.17;2.20;;;30.10;78.00;;;;;;5097384;28;20039;-75
2021/06/06 12:43:04;;;;;;;5.15;1.50;;;30.40;78.10;;;;;;5101270;28;20489;-75
2021/06/06 12:45:39;;;;;;;4.68;1.83;;;30.30;77.90;;;;;;5101025;27;20039;-75
2021/06/06 12:48:11;;;;;;;5.38;1.92;;;29.70;77.40;;;;;;5100442;28;20123;-76
2021/06/06 12:50:42;;;;;;;3.38;1.50;;;29.40;79.00;;;;;;5100195;28;20040;-75
2021/06/06 12:53:27;;;;;;;6.45;1.98;;;29.60;79.80;;;;;;5101580;28;20043;-76
2021/06/06 12:56:08;;;;;;;5.43;2.15;;;29.70;79.50;;;;;;5101578;28;20038;-75
2021/06/06 12:58:38;;;;;;;5.57;1.83;;;30.20;79.90;;;;;;5099291;28;20047;-75
2021/06/06 13:01:25;;;;;;;5.95;2.55;;;30.60;78.40;;;;;;5114306;28;20048;-77
2021/06/06 13:03:56;;;;;;;4.38;1.77;;;30.90;77.70;;;;;;5094167;28;20055;-77
2021/06/06 13:06:38;;;;;;;4.13;1.60;;;30.70;77.60;;;;;;5097375;28;20118;-78
2021/06/06 13:09:28;;;;;;;4.97;1.73;;;30.60;77.60;;;;;;5098584;28;20048;-78
2021/06/06 13:12:13;;;;;;;3.92;1.60;;;30.40;77.40;;;;;;5112137;28;20056;-78
2021/06/06 13:15:07;;;;;;;3.22;1.60;;;30.40;77.80;;;;;;5098846;28;20073;-78
2021/06/06 13:17:45;;;;;;;4.53;1.92;;;30.50;76.90;;;;;;5088558;28;20402;-78
2021/06/06 13:20:28;;;;;;;5.22;1.40;;;30.60;77.30;;;;;;5097976;28;20123;-78
2021/06/06 13:23:09;;;;;;;4.03;1.58;;;31.20;75.60;;;;;;5099445;28;20579;-78